createdAt,value
2023-07-25T00:01:49.592Z,98304.69
2023-07-25T00:04:18.618Z,98310.50
2023-07-25T00:06:46.893Z,98309.22
2023-07-25T00:09:15.369Z,98302.34
2023-07-25T00:11:43.862Z,98297.66
2023-07-25T00:14:14.103Z,98301.47
2023-07-25T00:16:43.018Z,98296.13
2023-07-25T00:19:11.224Z,98301.47
2023-07-25T00:21:39.742Z,98310.72
2023-07-25T00:24:08.203Z,98315.09
2023-07-25T00:26:40.099Z,98304.72
2023-07-25T00:29:08.633Z,98300.16
2023-07-25T00:31:38.621Z,98295.06
2023-07-25T00:34:07.928Z,98302.06
2023-07-25T00:36:36.577Z,98299.31
2023-07-25T00:39:05.626Z,98300.78
2023-07-25T00:41:34.347Z,98312.50
2023-07-25T00:44:03.208Z,98302.63
2023-07-25T00:46:31.726Z,98303.91
2023-07-25T00:49:03.994Z,98295.66
2023-07-25T00:51:35.433Z,98295.78
2023-07-25T00:54:04.193Z,98281.56
2023-07-25T00:56:33.610Z,98278.56
2023-07-25T00:59:02.683Z,98268.66
2023-07-25T01:01:31.256Z,98270.78
2023-07-25T01:04:01.755Z,98265.13
2023-07-25T01:06:32.066Z,98261.66
2023-07-25T01:09:01.789Z,98247.03
2023-07-25T01:11:30.779Z,98245.38
2023-07-25T01:13:59.739Z,98236.91
2023-07-25T01:16:31.717Z,98240.81
2023-07-25T01:19:03.162Z,98244.47
2023-07-25T01:21:32.228Z,98239.00
2023-07-25T01:24:04.479Z,98236.09
2023-07-25T01:26:33.970Z,98235.84
2023-07-25T01:29:05.244Z,98238.91
2023-07-25T01:31:34.145Z,98243.16
2023-07-25T01:34:02.900Z,98248.88
2023-07-25T01:36:37.215Z,98250.41
2023-07-25T01:39:08.282Z,98266.91
2023-07-25T01:41:36.858Z,98257.38
2023-07-25T01:44:06.363Z,98266.09
2023-07-25T01:46:35.015Z,98273.91
2023-07-25T01:49:05.927Z,98277.88
2023-07-25T01:51:34.453Z,98283.72
2023-07-25T01:54:03.323Z,98273.56
2023-07-25T01:56:35.944Z,98277.56
2023-07-25T01:59:08.589Z,98275.19
2023-07-25T02:01:38.293Z,98279.06
2023-07-25T02:04:08.760Z,98277.19
2023-07-25T02:06:39.218Z,98278.41
2023-07-25T02:09:08.096Z,98280.09
2023-07-25T02:11:37.700Z,98282.31
2023-07-25T02:14:06.205Z,98287.91
2023-07-25T02:16:38.084Z,98279.63
2023-07-25T02:19:07.152Z,98281.53
2023-07-25T02:21:36.492Z,98278.25
2023-07-25T02:24:05.314Z,98281.81
2023-07-25T02:26:34.309Z,98284.69
2023-07-25T02:29:04.290Z,98287.38
2023-07-25T02:31:33.052Z,98295.19
2023-07-25T02:34:04.415Z,98299.34
2023-07-25T02:36:32.925Z,98294.72
2023-07-25T02:39:01.377Z,98292.50
2023-07-25T02:41:30.388Z,98294.75
2023-07-25T02:43:59.109Z,98288.91
2023-07-25T02:46:29.125Z,98279.19
2023-07-25T02:48:58.504Z,98297.38
2023-07-25T02:51:27.036Z,98306.91
2023-07-25T02:53:55.580Z,98302.94
2023-07-25T02:56:27.106Z,98310.97
2023-07-25T02:58:55.714Z,98318.16
2023-07-25T03:01:24.234Z,98277.78
2023-07-25T03:03:54.257Z,98304.41
2023-07-25T03:06:22.851Z,98303.34
2023-07-25T03:08:51.246Z,98303.03
2023-07-25T03:11:19.782Z,98291.78
2023-07-25T03:13:48.277Z,98280.75
2023-07-25T03:16:17.029Z,98284.22
2023-07-25T03:18:45.392Z,98276.47
2023-07-25T03:21:15.746Z,98277.03
2023-07-25T03:23:47.371Z,98263.41
2023-07-25T03:26:16.148Z,98260.31
2023-07-25T03:28:44.359Z,98255.41
2023-07-25T03:31:13.076Z,98263.09
2023-07-25T03:33:44.207Z,98269.56
2023-07-25T03:36:12.848Z,98254.75
2023-07-25T03:38:42.989Z,98256.13
2023-07-25T03:41:11.605Z,98246.44
2023-07-25T03:43:40.108Z,98243.88
2023-07-25T03:46:08.810Z,98261.41
2023-07-25T03:48:39.586Z,98260.75
2023-07-25T03:51:10.586Z,98249.34
2023-07-25T03:53:39.209Z,98259.34
2023-07-25T03:56:12.093Z,98261.56
2023-07-25T03:58:40.722Z,98244.28
2023-07-25T04:01:09.373Z,98256.00
2023-07-25T04:03:38.417Z,98257.84
2023-07-25T04:06:07.301Z,98254.72
2023-07-25T04:08:35.962Z,98252.88
2023-07-25T04:11:04.502Z,98262.97
2023-07-25T04:13:34.426Z,98270.00
2023-07-25T04:16:03.200Z,98269.53
2023-07-25T04:18:31.438Z,98263.47
2023-07-25T04:21:00.027Z,98262.19
2023-07-25T04:23:28.545Z,98268.25
2023-07-25T04:25:57.132Z,98261.88
2023-07-25T04:28:25.755Z,98259.53
2023-07-25T04:30:55.861Z,98257.53
2023-07-25T04:33:24.461Z,98257.81
2023-07-25T04:35:52.980Z,98262.53
2023-07-25T04:38:21.596Z,98254.34
2023-07-25T04:40:50.131Z,98256.25
2023-07-25T04:43:18.722Z,98251.53
2023-07-25T04:45:54.265Z,98248.41
2023-07-25T04:48:25.244Z,98237.19
2023-07-25T04:50:54.499Z,98230.25
2023-07-25T04:53:22.978Z,98237.66
2023-07-25T04:55:51.610Z,98245.03
2023-07-25T04:58:20.022Z,98246.94
2023-07-25T05:00:49.280Z,98256.91
2023-07-25T05:03:17.992Z,98250.22
2023-07-25T05:05:48.024Z,98242.28
2023-07-25T05:08:16.533Z,98250.16
2023-07-25T05:10:45.079Z,98244.19
2023-07-25T05:13:13.782Z,98252.97
2023-07-25T05:15:42.206Z,98247.06
2023-07-25T05:18:10.719Z,98242.19
2023-07-25T05:20:39.301Z,98235.03
2023-07-25T05:23:10.930Z,98238.88
2023-07-25T05:25:40.530Z,98246.16
2023-07-25T05:28:09.147Z,98261.94
2023-07-25T05:30:37.941Z,98252.59
2023-07-25T05:33:06.435Z,98262.84
2023-07-25T05:35:35.013Z,98254.50
2023-07-25T05:38:04.055Z,98268.47
2023-07-25T05:40:33.978Z,98265.00
2023-07-25T05:43:02.456Z,98263.41
2023-07-25T05:45:30.959Z,98274.56
2023-07-25T05:47:59.535Z,98267.97
2023-07-25T05:50:27.845Z,98264.50
2023-07-25T05:52:56.303Z,98261.50
2023-07-25T05:55:24.848Z,98251.78
2023-07-25T05:57:54.644Z,98271.22
2023-07-25T06:00:23.988Z,98261.69
2023-07-25T06:02:52.588Z,98263.00
2023-07-25T06:05:21.196Z,98268.13
2023-07-25T06:07:49.484Z,98270.78
2023-07-25T06:10:17.968Z,98269.03
2023-07-25T06:12:47.580Z,98280.22
2023-07-25T06:15:17.724Z,98287.88
2023-07-25T06:17:46.340Z,98286.88
2023-07-25T06:20:14.821Z,98277.88
2023-07-25T06:22:43.274Z,98267.41
2023-07-25T06:25:14.050Z,98271.16
2023-07-25T06:27:42.695Z,98266.34
2023-07-25T06:30:12.125Z,98281.75
2023-07-25T06:32:42.774Z,98283.94
2023-07-25T06:35:11.774Z,98284.50
2023-07-25T06:37:40.681Z,98284.91
2023-07-25T06:40:10.249Z,98287.56
2023-07-25T06:42:38.871Z,98285.97
2023-07-25T06:45:09.097Z,98274.72
2023-07-25T06:47:37.687Z,98277.63
2023-07-25T06:50:08.546Z,98276.19
2023-07-25T06:52:37.186Z,98280.88
2023-07-25T06:55:06.089Z,98287.38
2023-07-25T06:57:34.628Z,98281.78
2023-07-25T07:00:04.406Z,98293.09
2023-07-25T07:02:35.874Z,98284.38
2023-07-25T07:05:15.455Z,98279.72
2023-07-25T07:07:54.640Z,98276.56
2023-07-25T07:10:23.177Z,98279.03
2023-07-25T07:12:53.967Z,98289.66
2023-07-25T07:15:25.366Z,98292.50
2023-07-25T07:17:54.515Z,98287.03
2023-07-25T07:20:23.920Z,98292.41
2023-07-25T07:22:52.920Z,98295.28
2023-07-25T07:25:23.276Z,98300.13
2023-07-25T07:27:52.052Z,98299.78
2023-07-25T07:30:20.509Z,98306.56
2023-07-25T07:32:48.931Z,98307.13
2023-07-25T07:35:17.340Z,98304.28
2023-07-25T07:37:45.879Z,98302.91
2023-07-25T07:40:14.580Z,98311.47
2023-07-25T07:42:44.645Z,98304.00
2023-07-25T07:45:13.443Z,98302.97
2023-07-25T07:47:41.969Z,98308.91
2023-07-25T07:50:10.574Z,98304.09
2023-07-25T07:52:44.739Z,98293.69
2023-07-25T07:55:13.735Z,98302.97
2023-07-25T07:57:45.246Z,98311.59
2023-07-25T08:00:16.029Z,98306.13
2023-07-25T08:02:46.918Z,98313.72
2023-07-25T08:05:15.670Z,98312.63
2023-07-25T08:07:44.456Z,98307.41
2023-07-25T08:10:13.176Z,98314.16
2023-07-25T08:12:41.886Z,98317.59
2023-07-25T08:15:12.353Z,98312.19
2023-07-25T08:17:41.010Z,98312.63
2023-07-25T08:20:09.705Z,98309.81
2023-07-25T08:22:37.958Z,98315.72
2023-07-25T08:25:07.133Z,98323.34
2023-07-25T08:27:35.682Z,98325.28
2023-07-25T08:30:04.406Z,98321.25
2023-07-25T08:32:34.679Z,98329.22
2023-07-25T08:35:03.453Z,98325.88
2023-07-25T08:37:32.653Z,98323.91
2023-07-25T08:40:01.165Z,98319.13
2023-07-25T08:42:34.549Z,98317.78
2023-07-25T08:45:07.083Z,98320.09
2023-07-25T08:47:41.629Z,98322.81
2023-07-25T08:50:15.746Z,98319.06
2023-07-25T08:52:51.335Z,98319.19
2023-07-25T08:55:20.264Z,98326.44
2023-07-25T08:57:52.601Z,98329.31
2023-07-25T09:00:22.758Z,98321.66
2023-07-25T09:02:54.246Z,98322.59
2023-07-25T09:05:24.273Z,98323.34
2023-07-25T09:07:52.856Z,98318.94
2023-07-25T09:10:21.661Z,98319.50
2023-07-25T09:12:50.506Z,98326.94
2023-07-25T09:15:19.303Z,98322.47
2023-07-25T09:17:47.722Z,98322.25
2023-07-25T09:20:18.265Z,98321.34
2023-07-25T09:22:49.598Z,98332.22
2023-07-25T09:25:18.559Z,98321.16
2023-07-25T09:27:47.742Z,98329.16
2023-07-25T09:30:16.804Z,98328.25
2023-07-25T09:32:49.401Z,98324.03
2023-07-25T09:35:19.518Z,98320.00
2023-07-25T09:37:53.900Z,98310.66
2023-07-25T09:40:22.638Z,98313.81
2023-07-25T09:42:52.695Z,98311.09
2023-07-25T09:45:22.179Z,98301.28
2023-07-25T09:47:54.725Z,98300.34
2023-07-25T09:50:28.577Z,98294.00
2023-07-25T09:52:57.287Z,98300.31
2023-07-25T09:55:25.764Z,98301.13
2023-07-25T09:57:54.884Z,98303.69
2023-07-25T10:00:24.063Z,98304.41
2023-07-25T10:02:53.599Z,98304.81
2023-07-25T10:05:22.949Z,98302.31
2023-07-25T10:07:56.971Z,98309.97
2023-07-25T10:10:27.231Z,98295.91
2023-07-25T10:12:56.316Z,98295.72
2023-07-25T10:15:25.078Z,98284.06
2023-07-25T10:17:53.393Z,98296.38
2023-07-25T10:20:24.063Z,98291.59
2023-07-25T10:22:54.257Z,98288.75
2023-07-25T10:25:28.816Z,98288.34
2023-07-25T10:28:00.298Z,98285.13
2023-07-25T10:30:31.437Z,98293.19
2023-07-25T10:33:02.969Z,98294.53
2023-07-25T10:35:42.173Z,98281.19
2023-07-25T10:38:13.062Z,98293.22
2023-07-25T10:40:59.141Z,98297.69
2023-07-25T10:43:31.937Z,98298.47
2023-07-25T10:46:03.020Z,98299.81
2023-07-25T10:48:33.623Z,98294.28
2023-07-25T10:51:03.858Z,98297.72
2023-07-25T10:53:33.859Z,98300.63
2023-07-25T10:56:16.517Z,98301.88
2023-07-25T10:59:06.778Z,98294.78
2023-07-25T11:01:38.460Z,98304.84
2023-07-25T11:04:27.597Z,98300.28
2023-07-25T11:06:57.847Z,98291.78
2023-07-25T11:09:29.191Z,98288.53
2023-07-25T11:11:58.360Z,98287.94
2023-07-25T11:14:26.932Z,98290.47
2023-07-25T11:16:56.750Z,98295.84
2023-07-25T11:19:29.360Z,98290.28
2023-07-25T11:21:58.503Z,98284.88
2023-07-25T11:24:28.531Z,98289.59
2023-07-25T11:26:57.745Z,98284.69
2023-07-25T11:29:26.272Z,98295.91
2023-07-25T11:31:54.841Z,98283.00
2023-07-25T11:34:23.260Z,98282.47
2023-07-25T11:36:51.710Z,98270.53
2023-07-25T11:39:20.566Z,98280.88
2023-07-25T11:41:50.609Z,98293.28
2023-07-25T11:44:21.546Z,98282.16
2023-07-25T11:46:52.978Z,98283.59
2023-07-25T11:49:36.402Z,98277.59
2023-07-25T11:52:11.907Z,98273.97
2023-07-25T11:54:40.882Z,98276.53
2023-07-25T11:57:12.272Z,98276.63
2023-07-25T11:59:44.170Z,98284.81
2023-07-25T12:02:13.810Z,98278.41
2023-07-25T12:04:46.355Z,98270.94
2023-07-25T12:07:15.418Z,98268.50
2023-07-25T12:09:52.800Z,98265.97
2023-07-25T12:12:23.340Z,98270.75
2023-07-25T12:14:59.677Z,98259.56
2023-07-25T12:17:43.858Z,98257.78
2023-07-25T12:20:17.640Z,98254.84
2023-07-25T12:22:46.558Z,98254.88
2023-07-25T12:25:18.833Z,98250.66
2023-07-25T12:27:51.279Z,98251.84
2023-07-25T12:30:19.897Z,98246.81
2023-07-25T12:32:48.289Z,98252.56
2023-07-25T12:35:16.865Z,98241.00
2023-07-25T12:37:45.509Z,98252.13
2023-07-25T12:40:14.190Z,98244.75
2023-07-25T12:42:42.641Z,98240.88
2023-07-25T12:45:12.952Z,98235.19
2023-07-25T12:47:41.597Z,98242.22
2023-07-25T12:50:11.110Z,98240.72
2023-07-25T12:52:39.772Z,98248.69
2023-07-25T12:55:08.260Z,98248.25
2023-07-25T12:57:38.455Z,98241.84
2023-07-25T13:00:09.039Z,98239.81
2023-07-25T13:02:39.239Z,98233.59
2023-07-25T13:05:08.878Z,98238.00
2023-07-25T13:07:37.574Z,98228.34
2023-07-25T13:10:08.193Z,98225.63
2023-07-25T13:12:36.957Z,98232.22
2023-07-25T13:15:06.321Z,98227.72
2023-07-25T13:17:35.802Z,98231.47
2023-07-25T13:20:08.289Z,98224.78
2023-07-25T13:22:37.454Z,98224.06
2023-07-25T13:25:06.808Z,98231.81
2023-07-25T13:27:35.415Z,98235.84
2023-07-25T13:30:03.713Z,98226.50
2023-07-25T13:32:33.149Z,98223.03
2023-07-25T13:35:01.968Z,98220.16
2023-07-25T13:37:34.359Z,98231.72
2023-07-25T13:40:03.122Z,98222.44
2023-07-25T13:42:32.953Z,98221.34
2023-07-25T13:45:01.425Z,98226.72
2023-07-25T13:47:33.024Z,98214.25
2023-07-25T13:50:01.968Z,98215.81
2023-07-25T13:52:33.765Z,98217.53
2023-07-25T13:55:02.484Z,98221.09
2023-07-25T13:57:35.233Z,98218.03
2023-07-25T14:00:06.661Z,98220.34
2023-07-25T14:02:38.750Z,98210.16
2023-07-25T14:05:08.193Z,98199.03
2023-07-25T14:07:38.206Z,98199.66
2023-07-25T14:10:07.808Z,98202.41
2023-07-25T14:12:36.495Z,98208.69
2023-07-25T14:15:05.401Z,98197.94
2023-07-25T14:17:34.209Z,98187.66
2023-07-25T14:20:02.416Z,98205.69
2023-07-25T14:22:32.061Z,98200.72
2023-07-25T14:25:01.716Z,98202.25
2023-07-25T14:27:30.497Z,98194.47
2023-07-25T14:29:58.723Z,98204.28
2023-07-25T14:32:27.200Z,98201.72
2023-07-25T14:34:56.990Z,98197.13
2023-07-25T14:37:31.212Z,98198.00
2023-07-25T14:40:08.525Z,98209.59
2023-07-25T14:42:37.144Z,98201.91
2023-07-25T14:45:05.715Z,98203.56
2023-07-25T14:47:34.065Z,98199.09
2023-07-25T14:50:02.687Z,98201.59
2023-07-25T14:52:31.577Z,98192.28
2023-07-25T14:55:00.139Z,98194.78
2023-07-25T14:57:31.675Z,98190.34
2023-07-25T15:00:00.380Z,98201.81
2023-07-25T15:02:28.674Z,98202.44
2023-07-25T15:04:57.178Z,98197.16
2023-07-25T15:07:25.827Z,98187.34
2023-07-25T15:09:57.661Z,98197.41
2023-07-25T15:12:29.585Z,98194.72
2023-07-25T15:14:58.817Z,98195.22
2023-07-25T15:17:28.384Z,98190.75
2023-07-25T15:20:00.040Z,98195.56
2023-07-25T15:22:29.101Z,98186.66
2023-07-25T15:24:58.516Z,98189.94
2023-07-25T15:27:27.156Z,98192.38
2023-07-25T15:29:56.974Z,98203.13
2023-07-25T15:32:25.607Z,98196.50
2023-07-25T15:34:53.839Z,98203.31
2023-07-25T15:37:22.542Z,98207.63
2023-07-25T15:39:51.013Z,98205.81
2023-07-25T15:42:21.287Z,98208.03
2023-07-25T15:44:50.004Z,98201.09
2023-07-25T15:47:19.649Z,98203.47
2023-07-25T15:49:49.773Z,98206.50
2023-07-25T15:52:18.472Z,98215.38
2023-07-25T15:54:46.723Z,98216.97
2023-07-25T15:57:18.886Z,98224.22
2023-07-25T15:59:47.971Z,98223.63
2023-07-25T16:02:21.618Z,98218.00
2023-07-25T16:04:50.354Z,98217.88
2023-07-25T16:07:20.710Z,98212.84
2023-07-25T16:09:49.338Z,98215.41
2023-07-25T16:12:18.124Z,98221.16
2023-07-25T16:14:46.732Z,98216.53
2023-07-25T16:17:14.958Z,98214.91
2023-07-25T16:19:44.983Z,98212.19
2023-07-25T16:22:13.465Z,98209.75
2023-07-25T16:24:42.065Z,98205.28
2023-07-25T16:27:10.280Z,98204.81
2023-07-25T16:29:39.309Z,98208.19
2023-07-25T16:32:08.711Z,98212.22
2023-07-25T16:34:37.169Z,98221.66
2023-07-25T16:37:07.729Z,98206.47
2023-07-25T16:39:36.362Z,98217.38
2023-07-25T16:42:13.372Z,98223.25
2023-07-25T16:44:42.117Z,98219.81
2023-07-25T16:47:11.802Z,98213.41
2023-07-25T16:49:39.942Z,98218.28
2023-07-25T16:52:11.056Z,98214.75
2023-07-25T16:54:42.647Z,98218.13
2023-07-25T16:57:14.533Z,98216.59
2023-07-25T16:59:46.223Z,98216.91
2023-07-25T17:02:15.082Z,98220.66
2023-07-25T17:04:43.783Z,98214.19
2023-07-25T17:07:17.321Z,98207.31
2023-07-25T17:09:46.922Z,98213.34
2023-07-25T17:12:15.281Z,98219.25
2023-07-25T17:14:43.857Z,98224.09
2023-07-25T17:17:13.791Z,98214.94
2023-07-25T17:19:42.579Z,98216.81
2023-07-25T17:22:16.948Z,98212.75
2023-07-25T17:24:58.017Z,98216.47
2023-07-25T17:27:33.824Z,98199.09
2023-07-25T17:30:02.474Z,98189.31
2023-07-25T17:32:32.594Z,98196.19
2023-07-25T17:35:05.861Z,98203.56
2023-07-25T17:37:41.630Z,98209.56
2023-07-25T17:40:12.447Z,98198.16
2023-07-25T17:42:41.082Z,98206.72
2023-07-25T17:45:24.853Z,98203.50
2023-07-25T17:47:55.578Z,98206.97
2023-07-25T17:50:24.185Z,98205.78
2023-07-25T17:52:59.771Z,98202.47
2023-07-25T17:55:43.443Z,98210.19
2023-07-25T17:58:13.713Z,98213.06
2023-07-25T18:01:18.129Z,98221.28
2023-07-25T18:03:47.122Z,98216.13
2023-07-25T18:06:15.828Z,98211.13
2023-07-25T18:08:44.093Z,98205.38
2023-07-25T18:11:15.462Z,98197.78
2023-07-25T18:13:47.238Z,98193.66
2023-07-25T18:16:28.160Z,98206.56
2023-07-25T18:18:56.753Z,98193.44
2023-07-25T18:21:26.613Z,98200.09
2023-07-25T18:23:55.475Z,98208.31
2023-07-25T18:26:25.572Z,98210.81
2023-07-25T18:28:54.195Z,98218.09
2023-07-25T18:31:25.697Z,98219.59
2023-07-25T18:33:54.583Z,98218.41
2023-07-25T18:36:24.079Z,98217.97
2023-07-25T18:38:52.759Z,98216.78
2023-07-25T18:41:21.331Z,98207.47
2023-07-25T18:43:55.399Z,98209.63
2023-07-25T18:46:24.115Z,98211.88
2023-07-25T18:48:52.733Z,98217.00
2023-07-25T18:51:21.066Z,98223.13
2023-07-25T18:53:49.889Z,98216.06
2023-07-25T18:56:18.434Z,98217.75
2023-07-25T18:58:51.355Z,98222.09
2023-07-25T19:01:20.097Z,98207.94
2023-07-25T19:03:48.802Z,98206.28
2023-07-25T19:06:17.308Z,98202.50
2023-07-25T19:08:49.059Z,98204.34
2023-07-25T19:11:19.210Z,98191.34
2023-07-25T19:13:47.819Z,98200.69
2023-07-25T19:16:17.914Z,98200.66
2023-07-25T19:18:46.622Z,98188.75
2023-07-25T19:21:14.958Z,98206.03
2023-07-25T19:23:45.889Z,98207.38
2023-07-25T19:26:15.367Z,98233.34
2023-07-25T19:28:43.803Z,98219.91
2023-07-25T19:31:15.293Z,98227.16
2023-07-25T19:33:45.692Z,98218.03
2023-07-25T19:36:18.376Z,98216.38
2023-07-25T19:38:58.978Z,98216.34
2023-07-25T19:41:28.203Z,98206.66
2023-07-25T19:43:58.096Z,98216.81
2023-07-25T19:46:26.837Z,98207.44
2023-07-25T19:48:56.553Z,98207.19
2023-07-25T19:51:25.252Z,98204.50
2023-07-25T19:53:53.874Z,98206.09
2023-07-25T19:56:53.606Z,98214.13
2023-07-25T19:59:47.663Z,98200.34
2023-07-25T20:02:16.500Z,98204.41
2023-07-25T20:04:50.087Z,98205.50
2023-07-25T20:07:32.765Z,98204.94
2023-07-25T20:10:08.176Z,98200.56
2023-07-25T20:12:40.172Z,98198.50
2023-07-25T20:15:11.236Z,98200.56
2023-07-25T20:17:41.847Z,98201.47
2023-07-25T20:20:12.880Z,98195.78
2023-07-25T20:22:42.101Z,98203.88
2023-07-25T20:25:13.437Z,98206.56
2023-07-25T20:27:42.308Z,98202.25
2023-07-25T20:30:13.339Z,98195.00
2023-07-25T20:32:41.905Z,98184.47
2023-07-25T20:39:06.939Z,98166.44
2023-07-25T20:42:03.071Z,98166.97
2023-07-25T20:44:34.144Z,98168.06
2023-07-25T20:47:03.061Z,98173.97
2023-07-25T20:49:31.670Z,98164.84
2023-07-25T20:52:08.365Z,98150.53
2023-07-25T20:54:39.921Z,98158.06
2023-07-25T20:57:09.613Z,98163.44
2023-07-25T20:59:37.895Z,98173.50
2023-07-25T21:02:06.733Z,98178.09
2023-07-25T21:04:35.227Z,98171.03
2023-07-25T21:07:15.308Z,98179.72
2023-07-25T21:09:49.180Z,98175.69
2023-07-25T21:12:17.736Z,98171.09
2023-07-25T21:14:46.202Z,98162.72
2023-07-25T21:17:22.705Z,98160.81
2023-07-25T21:19:53.384Z,98151.13
2023-07-25T21:22:28.561Z,98161.34
2023-07-25T21:27:58.773Z,98147.78
2023-07-25T21:30:30.021Z,98150.47
2023-07-25T21:33:03.170Z,98154.72
2023-07-25T21:35:32.030Z,98147.09
2023-07-25T21:38:18.320Z,98150.22
2023-07-25T21:40:47.619Z,98141.53
2023-07-25T21:43:16.179Z,98139.44
2023-07-25T21:45:44.695Z,98128.41
2023-07-25T21:48:14.079Z,98136.19
2023-07-25T21:50:42.628Z,98144.44
2023-07-25T21:53:14.131Z,98141.53
2023-07-25T21:55:46.116Z,98140.06
2023-07-25T21:58:14.703Z,98138.97
2023-07-25T22:00:46.167Z,98123.47
2023-07-25T22:03:13.966Z,98123.00
2023-07-25T22:05:44.323Z,98116.59
2023-07-25T22:08:14.194Z,98112.53
2023-07-25T22:10:42.682Z,98111.41
2023-07-25T22:13:11.239Z,98118.63
2023-07-25T22:15:42.677Z,98118.88
2023-07-25T22:18:14.005Z,98125.69
2023-07-25T22:20:51.487Z,98127.56
2023-07-25T22:23:27.554Z,98125.88
2023-07-25T22:26:01.145Z,98120.94
2023-07-25T22:28:29.981Z,98124.66
2023-07-25T22:31:02.072Z,98119.78
2023-07-25T22:33:30.680Z,98102.44
2023-07-25T22:35:59.100Z,98112.22
2023-07-25T22:38:35.431Z,98108.56
2023-07-25T22:41:06.680Z,98108.03
2023-07-25T22:43:35.454Z,98101.34
2023-07-25T22:46:04.483Z,98107.72
2023-07-25T22:48:33.441Z,98097.13
2023-07-25T22:51:02.047Z,98088.81
2023-07-25T22:53:35.117Z,98094.00
2023-07-25T22:56:05.088Z,98096.34
2023-07-25T22:58:33.801Z,98091.56
2023-07-25T23:01:02.194Z,98092.59
2023-07-25T23:03:30.881Z,98094.31
2023-07-25T23:06:03.709Z,98097.50
2023-07-25T23:08:34.584Z,98089.19
2023-07-25T23:11:03.117Z,98089.88
2023-07-25T23:13:33.469Z,98103.06
2023-07-25T23:16:01.983Z,98111.19
2023-07-25T23:18:30.435Z,98112.91
2023-07-25T23:20:58.931Z,98118.88
2023-07-25T23:23:27.380Z,98121.34
2023-07-25T23:25:57.545Z,98119.53
2023-07-25T23:28:27.816Z,98113.41
2023-07-25T23:30:56.793Z,98107.28
2023-07-25T23:33:25.023Z,98115.03
2023-07-25T23:35:55.572Z,98108.47
2023-07-25T23:38:24.262Z,98119.41
2023-07-25T23:40:52.652Z,98107.97
2023-07-25T23:43:22.471Z,98116.47
2023-07-25T23:45:53.623Z,98108.59
2023-07-25T23:48:23.080Z,98109.97
2023-07-25T23:50:51.851Z,98111.63
2023-07-25T23:53:19.982Z,98105.81
2023-07-25T23:55:48.495Z,98104.16
2023-07-25T23:58:16.962Z,98097.56
